Time;durP1;ratioP1;P1;durP2;ratioP2;P2;SDS_P1;SDS_P2;PMS_P1;PMS_P2;Temp;Humidity;BMP_temperature;BMP_pressure;BME280_temperature;BME280_humidity;BME280_pressure;Samples;Min_cycle;Max_cycle;Signal;HPM_P1;HPM_P2
2021/03/09 00:01:04;;;;;;;8.05;4.82;;;;;;;18.07;29.30;101639.03;31868111;27;20042;-63
2021/03/09 00:16:05;;;;;;;8.70;4.80;;;;;;;18.06;29.69;101637.38;31832778;27;20041;-61
2021/03/09 00:31:06;;;;;;;8.10;4.85;;;;;;;18.04;29.86;101630.53;31861813;27;20284;-63
2021/03/09 00:46:07;;;;;;;6.73;4.27;;;;;;;18.03;29.92;101631.47;31858631;27;20031;-63
2021/03/09 01:01:08;;;;;;;7.27;4.67;;;;;;;17.99;30.36;101623.78;31857604;27;20293;-63
2021/03/09 01:16:09;;;;;;;7.20;4.43;;;;;;;17.95;30.49;101597.78;31859108;28;20295;-63
2021/03/09 01:31:10;;;;;;;7.03;4.68;;;;;;;17.90;30.46;101587.56;31856440;27;20284;-64
2021/03/09 01:46:11;;;;;;;7.83;4.63;;;;;;;17.87;30.53;101579.06;31873022;27;20043;-64
2021/03/09 02:01:13;;;;;;;7.93;4.78;;;;;;;17.82;30.69;101563.59;31840347;27;20765;-63
2021/03/09 02:16:41;;;;;;;8.77;4.63;;;;;;;17.78;30.84;101548.94;31864544;27;20073;-61
2021/03/09 02:31:43;;;;;;;8.10;4.70;;;;;;;17.74;31.03;101550.09;31850683;27;20476;-61
2021/03/09 02:46:45;;;;;;;8.80;4.75;;;;;;;17.70;31.06;101548.59;31840533;27;20088;-60
2021/03/09 03:01:47;;;;;;;9.18;5.13;;;;;;;17.64;31.15;101530.59;31867820;27;20041;-62
2021/03/09 03:16:48;;;;;;;8.02;4.45;;;;;;;17.59;31.11;101517.75;31825176;27;20096;-59
2021/03/09 03:31:49;;;;;;;7.33;4.67;;;;;;;17.56;31.31;101525.84;31845634;27;20321;-60
2021/03/09 03:46:50;;;;;;;6.78;4.50;;;;;;;17.53;31.09;101519.03;31825757;27;20269;-58
2021/03/09 04:01:51;;;;;;;7.35;4.07;;;;;;;17.50;31.12;101507.84;31865662;27;20027;-63
2021/03/09 04:16:53;;;;;;;8.02;4.18;;;;;;;17.47;31.33;101502.81;31822435;27;20080;-63
2021/03/09 04:31:54;;;;;;;7.32;4.32;;;;;;;17.44;31.58;101496.00;31833408;27;20035;-62
2021/03/09 04:46:55;;;;;;;7.50;4.10;;;;;;;17.40;31.43;101485.78;31858524;27;20392;-62
2021/03/09 05:01:56;;;;;;;6.87;4.10;;;;;;;17.34;31.57;101479.13;31835816;27;20035;-63
2021/03/09 05:16:57;;;;;;;9.23;4.47;;;;;;;17.31;31.56;101474.94;31855660;27;20787;-63
2021/03/09 05:31:58;;;;;;;6.55;4.18;;;;;;;17.28;31.57;101479.56;31880301;27;20287;-63
2021/03/09 05:47:02;;;;;;;8.10;4.30;;;;;;;17.23;31.56;101481.66;31879593;27;20499;-62
2021/03/09 06:02:04;;;;;;;7.60;4.18;;;;;;;17.21;31.61;101479.13;31840125;27;20285;-63
2021/03/09 06:17:05;;;;;;;7.20;3.97;;;;;;;17.21;31.46;101478.28;31877904;27;20027;-62
2021/03/09 06:32:06;;;;;;;6.75;3.78;;;;;;;17.22;31.32;101472.91;31839976;27;20400;-62
2021/03/09 06:47:07;;;;;;;12.15;6.63;;;;;;;16.17;19.82;101481.34;31863611;27;20360;-60
2021/03/09 07:02:22;;;;;;;13.02;7.03;;;;;;;10.04;24.84;101501.16;31848855;27;20438;-60
2021/03/09 07:17:24;;;;;;;12.35;6.32;;;;;;;8.48;27.40;101506.16;31862816;27;20019;-61
2021/03/09 07:32:27;;;;;;;14.68;7.55;;;;;;;7.89;28.81;101504.28;31838683;27;20031;-58
2021/03/09 07:47:28;;;;;;;15.20;7.15;;;;;;;9.68;37.64;101510.22;31861978;27;20051;-62
2021/03/09 08:02:38;;;;;;;11.77;6.40;;;;;;;12.44;31.67;101488.94;31848780;27;20035;-56
2021/03/09 08:17:39;;;;;;;11.35;5.70;;;;;;;14.44;29.97;101479.88;31835888;27;20076;-60
2021/03/09 08:32:40;;;;;;;10.75;5.63;;;;;;;16.12;27.60;101465.84;31839418;27;20043;-60
2021/03/09 08:48:01;;;;;;;9.82;5.82;;;;;;;18.10;24.71;101457.31;31850504;27;20500;-60
2021/03/09 09:03:02;;;;;;;8.68;5.28;;;;;;;19.80;22.78;101436.06;31872207;27;20038;-64
2021/03/09 09:18:07;;;;;;;12.63;6.65;;;;;;;19.88;18.15;101430.16;31871417;27;20027;-58
2021/03/09 09:33:11;;;;;;;10.90;6.55;;;;;;;20.19;22.79;101423.31;31852418;27;20035;-61
2021/03/09 09:48:17;;;;;;;11.02;6.57;;;;;;;19.55;22.16;101423.91;31861658;27;20031;-62
2021/03/09 10:03:18;;;;;;;10.45;6.47;;;;;;;20.93;22.25;101420.84;31849088;27;20080;-56
2021/03/09 10:18:23;;;;;;;10.90;6.07;;;;;;;21.40;22.74;101409.94;31870996;27;20027;-54
2021/03/09 10:33:24;;;;;;;10.03;6.37;;;;;;;22.01;22.91;101411.72;31868667;27;20292;-54
2021/03/09 10:48:25;;;;;;;10.23;6.03;;;;;;;22.46;22.75;101390.13;31853389;27;20043;-53
2021/03/09 11:03:26;;;;;;;10.13;5.73;;;;;;;22.57;23.49;101389.16;31834062;27;20300;-55
2021/03/09 11:18:27;;;;;;;9.33;7.23;;;;;;;22.16;21.26;101375.13;31844061;27;20284;-56
2021/03/09 11:33:28;;;;;;;9.80;6.30;;;;;;;21.00;23.71;101364.84;31857065;27;20300;-56
2021/03/09 11:48:29;;;;;;;7.90;6.03;;;;;;;21.03;24.51;101354.03;31832705;27;20307;-58
2021/03/09 12:03:30;;;;;;;8.87;6.10;;;;;;;21.17;24.49;101337.84;31834313;27;20299;-60
2021/03/09 12:18:31;;;;;;;8.37;5.17;;;;;;;21.08;25.07;101326.25;31853135;27;20291;-59
2021/03/09 12:33:32;;;;;;;9.57;5.53;;;;;;;20.78;26.07;101308.53;31836963;27;20296;-61
2021/03/09 12:48:33;;;;;;;7.57;5.10;;;;;;;20.57;26.21;101292.69;31797642;27;20277;-61
2021/03/09 13:03:34;;;;;;;8.33;5.40;;;;;;;20.32;26.73;101279.78;31774937;27;20285;-60
2021/03/09 13:18:35;;;;;;;9.50;5.70;;;;;;;20.25;26.83;101269.75;31809985;27;20292;-61
2021/03/09 13:33:36;;;;;;;9.90;5.20;;;;;;;20.15;27.47;101266.16;31837201;27;20281;-61
2021/03/09 13:48:40;;;;;;;8.75;5.05;;;;;;;20.28;27.57;101250.19;31837743;27;20288;-59
2021/03/09 14:03:42;;;;;;;9.32;6.05;;;;;;;20.40;27.90;101248.31;31846890;27;20043;-61
2021/03/09 14:18:44;;;;;;;8.88;5.63;;;;;;;20.44;28.18;101228.63;31854803;27;20078;-62
2021/03/09 14:33:45;;;;;;;8.00;5.43;;;;;;;20.37;28.39;101222.19;31831878;27;20104;-60
2021/03/09 14:48:46;;;;;;;7.47;5.10;;;;;;;20.25;29.04;101210.84;31861246;27;20438;-60
2021/03/09 15:03:47;;;;;;;7.47;5.10;;;;;;;20.03;29.65;101201.22;31808625;27;20316;-61
2021/03/09 15:18:48;;;;;;;11.13;5.95;;;;;;;19.84;30.16;101196.63;31838852;27;20720;-62
2021/03/09 15:33:50;;;;;;;8.67;5.77;;;;;;;19.57;29.85;101200.50;31836039;27;20039;-60
2021/03/09 15:48:51;;;;;;;11.60;6.75;;;;;;;19.48;30.38;101187.22;31834332;27;20288;-59
2021/03/09 16:03:52;;;;;;;10.20;7.00;;;;;;;19.45;30.18;101198.84;31843379;27;20485;-58
2021/03/09 16:18:53;;;;;;;9.23;6.57;;;;;;;19.33;30.29;101190.09;31850992;27;20293;-55
2021/03/09 16:33:54;;;;;;;9.33;6.50;;;;;;;19.41;30.30;101207.97;31840714;27;20705;-57
2021/03/09 16:48:56;;;;;;;9.82;6.47;;;;;;;19.62;30.13;101223.84;31827282;27;20273;-57
2021/03/09 17:03:56;;;;;;;10.95;6.15;;;;;;;19.81;29.75;101247.84;31774103;27;20485;-54
2021/03/09 17:18:57;;;;;;;11.13;6.30;;;;;;;20.03;29.62;101256.63;31865725;27;20046;-55
2021/03/09 17:33:58;;;;;;;7.70;6.00;;;;;;;20.15;29.30;101275.91;31860811;27;20289;-56
2021/03/09 17:48:59;;;;;;;8.90;5.73;;;;;;;20.25;29.40;101274.19;31865266;27;20293;-54
2021/03/09 18:04:00;;;;;;;10.93;6.30;;;;;;;20.23;26.96;101276.94;31856313;27;20293;-57
2021/03/09 18:19:04;;;;;;;9.97;6.30;;;;;;;20.15;26.27;101282.00;31831223;27;20291;-56
2021/03/09 18:34:05;;;;;;;10.43;6.20;;;;;;;14.41;19.60;101291.72;31856382;27;20842;-59
2021/03/09 18:49:06;;;;;;;10.05;5.07;;;;;;;16.72;25.55;101286.25;31842477;27;20043;-62
2021/03/09 19:04:07;;;;;;;8.63;5.70;;;;;;;18.19;25.15;101282.19;31835828;27;20035;-60
2021/03/09 19:19:08;;;;;;;9.20;4.67;;;;;;;19.14;25.38;101292.66;31860259;27;20030;-56
2021/03/09 19:34:09;;;;;;;9.50;5.30;;;;;;;19.66;24.94;101289.41;31852007;27;20303;-57
2021/03/09 19:49:10;;;;;;;8.97;5.23;;;;;;;20.15;24.97;101303.13;31846619;27;20285;-57
2021/03/09 20:04:11;;;;;;;8.00;4.97;;;;;;;20.46;24.91;101297.97;31851373;27;20357;-55
2021/03/09 20:19:12;;;;;;;14.37;9.90;;;;;;;20.56;22.82;101303.31;31833661;27;20036;-58
2021/03/09 20:34:13;;;;;;;10.57;7.87;;;;;;;20.83;24.70;101314.25;31846086;27;20691;-56
2021/03/09 20:49:14;;;;;;;9.47;7.13;;;;;;;21.05;24.83;101315.06;31859794;27;20280;-57
2021/03/09 21:04:15;;;;;;;10.70;7.63;;;;;;;21.14;25.06;101322.22;31879943;27;20653;-59
2021/03/09 21:19:16;;;;;;;10.50;6.97;;;;;;;21.29;25.73;101328.00;31841082;27;20277;-55
2021/03/09 21:34:17;;;;;;;11.37;8.73;;;;;;;21.31;22.28;101308.41;31868738;27;20793;-57
2021/03/09 21:49:18;;;;;;;11.13;8.53;;;;;;;21.27;22.82;101319.38;31835021;27;20364;-54
2021/03/09 22:04:19;;;;;;;10.83;7.10;;;;;;;21.33;27.21;101313.56;31838265;27;20769;-61
2021/03/09 22:19:20;;;;;;;9.07;7.07;;;;;;;21.19;26.89;101309.47;31860742;27;20288;-58
2021/03/09 22:34:21;;;;;;;9.63;7.05;;;;;;;21.05;27.13;101320.34;31828540;27;21877;-61
2021/03/09 22:49:22;;;;;;;11.53;7.63;;;;;;;20.83;27.42;101302.88;31859661;27;20037;-58
2021/03/09 23:04:23;;;;;;;10.53;7.67;;;;;;;20.58;26.56;101304.91;31853392;27;20277;-61
2021/03/09 23:19:24;;;;;;;10.88;6.90;;;;;;;16.97;24.05;101316.09;31836329;27;20273;-58
2021/03/09 23:34:25;;;;;;;10.13;6.45;;;;;;;18.28;26.89;101320.13;31786584;27;20100;-61
2021/03/09 23:49:26;;;;;;;12.98;7.90;;;;;;;18.79;26.14;101320.72;31800004;27;20388;-61
